Flight Track Log - Related Links

Times and Time Zones

All times are in EDT time to prevent confusion due to time zone crossing. See the WIG8306 flight status page for this flight to view local times or setup timezone preferences in your user account.

Time Position Orientation Groundspeed Altitude Reporting Facility
EDT Latitude Longitude Course Direction KTS MPH feet Rate Location/Type
Wed 04:39:00 AM 40.7000 -74.1500 37° Northeast 100 115 1,100  Level New York TRACON
Wed 04:40:00 AM 40.7167 -74.1333 37° Northeast 101 116 2,300 1,250 Climbing New York TRACON
Wed 04:41:00 AM 40.7500 -74.1167 21° North 89 102 3,600 1,200 Climbing New York TRACON
Wed 04:42:00 AM 40.7667 -74.1000 37° Northeast 96 110 4,700 1,028 Climbing New York TRACON
Wed 04:44:01 AM 40.8056 -74.0572 40° Northeast 96 110 6,700 796 Climbing Boston Center
Wed 04:45:01 AM 40.8369 -74.0556 North 107 123 7,100 200 Climbing Boston Center
Wed 04:46:01 AM 40.8800 -74.0494 North 145 167 7,100  Level Boston Center
Wed 04:47:03 AM 40.9217 -74.0453 North 150 173 7,100  Level Boston Center
Wed 04:48:02 AM 40.9608 -74.0400 North 147 169 7,100  Level Boston Center
Wed 04:49:01 AM 41.0039 -74.0344 North 145 167 7,100  Level Boston Center
Wed 04:50:03 AM 41.0428 -74.0303 North 143 165 7,100  Level Boston Center
Wed 04:51:03 AM 41.0833 -74.0242 North 143 165 7,100  Level Boston Center
Wed 04:52:02 AM 41.1222 -74.0192 North 143 165 7,100  Level Boston Center
Wed 04:53:05 AM 41.1622 -74.0139 North 143 165 7,100  Level Boston Center
Wed 04:54:02 AM 41.2025 -74.0097 North 143 165 7,100  Level Boston Center
Wed 04:55:05 AM 41.2447 -74.0036 North 143 165 7,100 -49 Level Boston Center
Wed 04:56:04 AM 41.2842 -73.9986 North 143 165 7,000 -51 Descending Boston Center
Wed 04:57:03 AM 41.3219 -73.9942 North 140 161 7,000  Level Boston Center
Wed 04:58:03 AM 41.3625 -73.9883 North 143 165 7,000  Level Boston Center
Wed 04:59:04 AM 41.4025 -73.9825 North 146 168 7,000  Level Boston Center
Wed 05:00:07 AM 41.4419 -73.9772 North 145 167 7,000  Level Boston Center
Wed 05:01:04 AM 41.4808 -73.9731 North 144 166 7,000  Level Boston Center
Wed 05:02:05 AM 41.5203 -73.9683 North 144 166 7,000  Level Boston Center
Wed 05:03:06 AM 41.5597 -73.9628 North 144 166 7,000  Level Boston Center
Wed 05:04:06 AM 41.5997 -73.9581 North 144 166 7,000  Level Boston Center
Wed 05:05:07 AM 41.6406 -73.9522 North 145 167 7,000  Level Boston Center
Wed 05:06:05 AM 41.6814 -73.9469 North 145 167 7,000  Level Boston Center
Wed 05:07:05 AM 41.7225 -73.9414 North 147 169 7,000  Level Boston Center
Wed 05:08:06 AM 41.7631 -73.9364 North 147 169 7,000  Level Boston Center
Wed 05:09:06 AM 41.8028 -73.9308 North 145 167 7,000  Level Boston Center
Wed 05:10:08 AM 41.8464 -73.9256 North 145 167 7,000  Level Boston Center
Wed 05:11:06 AM 41.8856 -73.9200 North 145 167 7,000  Level Boston Center
Wed 05:11:20 AM 41.8900 -73.9183 16° North 144 166 7,000  Level Boston Center
Wed 05:12:06 AM 41.9247 -73.9158 North 143 165 7,000  Level Boston Center
Wed 05:13:09 AM 41.9625 -73.9111 North 139 160 7,000  Level Boston Center
Wed 05:14:07 AM 42.0000 -73.9067 North 138 159 7,000  Level Boston Center
Wed 05:15:09 AM 42.0386 -73.9011 North 138 159 7,000  Level Boston Center
Wed 05:16:08 AM 42.0781 -73.8956 North 145 167 7,000  Level Boston Center
Wed 05:17:08 AM 42.1161 -73.8889 North 143 165 7,000  Level Boston Center
Wed 05:18:08 AM 42.1536 -73.8858 North 138 159 7,000  Level Boston Center
Wed 05:19:09 AM 42.1911 -73.8803 North 130 150 7,000  Level Boston Center
Wed 05:20:09 AM 42.2281 -73.8747 North 130 150 7,000  Level Boston Center
Wed 05:21:11 AM 42.2647 -73.8669 North 132 152 7,000  Level Boston Center
Wed 05:22:09 AM 42.3019 -73.8608 North 133 153 7,000 -252 Level Boston Center
Wed 05:23:10 AM 42.3406 -73.8536 North 136 157 6,500 -446 Descending Boston Center
Wed 05:24:10 AM 42.3803 -73.8469 North 141 162 6,100 -500 Descending Boston Center
Wed 05:25:10 AM 42.4208 -73.8403 North 143 165 5,500 -645 Descending Boston Center
Wed 05:26:11 AM 42.4622 -73.8342 North 147 169 4,800 -590 Descending Boston Center
Wed 05:27:12 AM 42.5031 -73.8264 North 149 171 4,300 -545 Descending Boston Center
Wed 05:28:12 AM 42.5442 -73.8197 North 150 173 3,700 -694 Descending Boston Center
Wed 05:29:13 AM 42.5861 -73.8119 North 150 173 2,900 -650 Descending Boston Center
Wed 05:30:12 AM 42.6242 -73.8067 North 144 166 2,400 -446 Descending Boston Center
Wed 05:31:14 AM 42.6586 -73.8014 North 130 150 2,000 -537 Descending Boston Center
Wed 05:32:15 AM 42.6883 -73.8028 358° North 102 117 1,300 -605 Descending Boston Center
Wed 05:33:13 AM 42.7150 -73.8036 359° North 98 113 800 -504 Descending Boston Center
Wed 05:34:14 AM 42.7442 -73.8064 356° North 103 119 300 -492 Descending Boston Center

Login

Don't have an account? Register now (free) for customized features, flight alerts, and more!